createdAt,value
2018-05-16T00:01:58.309Z,25.08
2018-05-16T00:04:24.428Z,25.07
2018-05-16T00:06:50.692Z,25.05
2018-05-16T00:09:16.912Z,25.04
2018-05-16T00:11:43.383Z,25.02
2018-05-16T00:14:09.543Z,25.05
2018-05-16T00:16:35.713Z,25.09
2018-05-16T00:19:01.933Z,25.11
2018-05-16T00:21:28.202Z,25.12
2018-05-16T00:23:54.322Z,25.12
2018-05-16T00:26:20.454Z,25.12
2018-05-16T00:28:46.604Z,25.12
2018-05-16T00:31:12.741Z,25.12
2018-05-16T00:33:38.929Z,25.11
2018-05-16T00:36:05.072Z,25.11
2018-05-16T00:38:31.481Z,25.10
2018-05-16T00:40:57.769Z,25.09
2018-05-16T00:43:23.909Z,25.05
2018-05-16T00:45:50.376Z,25.06
2018-05-16T00:48:16.541Z,25.06
2018-05-16T00:50:54.942Z,25.07
2018-05-16T00:53:21.113Z,25.06
2018-05-16T00:55:47.569Z,25.06
2018-05-16T00:58:13.836Z,25.05
2018-05-16T01:00:39.970Z,25.04
2018-05-16T01:03:06.102Z,25.03
2018-05-16T01:05:32.264Z,25.02
2018-05-16T01:07:58.404Z,25.02
2018-05-16T01:10:24.565Z,25.00
2018-05-16T01:12:50.966Z,24.98
2018-05-16T01:15:17.124Z,24.98
2018-05-16T01:17:43.266Z,24.98
2018-05-16T01:20:09.556Z,24.97
2018-05-16T01:22:35.691Z,24.95
2018-05-16T01:25:01.825Z,24.93
2018-05-16T01:27:28.088Z,24.91
2018-05-16T01:29:54.228Z,24.90
2018-05-16T01:32:20.396Z,24.89
2018-05-16T01:34:46.526Z,24.88
2018-05-16T01:37:12.735Z,24.87
2018-05-16T01:39:38.865Z,24.86
2018-05-16T01:42:05.018Z,24.86
2018-05-16T01:44:31.297Z,24.85
2018-05-16T01:46:57.886Z,24.85
2018-05-16T01:49:24.287Z,24.85
2018-05-16T01:51:50.424Z,24.84
2018-05-16T01:54:16.589Z,24.83
2018-05-16T01:56:42.713Z,24.81
2018-05-16T01:59:08.865Z,24.79
2018-05-16T02:01:35.074Z,24.79
2018-05-16T02:04:01.248Z,24.77
2018-05-16T02:06:27.382Z,24.77
2018-05-16T02:08:53.541Z,24.76
2018-05-16T02:11:19.670Z,24.75
2018-05-16T02:13:45.841Z,24.75
2018-05-16T02:16:11.997Z,24.73
2018-05-16T02:18:38.405Z,24.73
2018-05-16T02:21:04.836Z,24.72
2018-05-16T02:23:31.028Z,24.68
2018-05-16T02:25:57.162Z,24.67
2018-05-16T02:28:23.297Z,24.66
2018-05-16T02:30:49.461Z,24.64
2018-05-16T02:33:15.609Z,24.62
2018-05-16T02:35:41.791Z,24.60
2018-05-16T02:38:08.233Z,24.58
2018-05-16T02:40:34.399Z,24.56
2018-05-16T02:43:00.536Z,24.53
2018-05-16T02:45:27.018Z,24.52
2018-05-16T02:47:53.149Z,24.56
2018-05-16T02:50:19.343Z,24.60
2018-05-16T02:52:45.805Z,24.62
2018-05-16T02:55:11.946Z,24.63
2018-05-16T02:57:38.333Z,24.63
2018-05-16T03:00:04.799Z,24.62
2018-05-16T03:02:31.014Z,24.57
2018-05-16T03:04:57.150Z,24.52
2018-05-16T03:07:23.281Z,24.49
2018-05-16T03:09:56.484Z,24.47
2018-05-16T03:12:22.642Z,24.51
2018-05-16T03:14:48.806Z,24.52
2018-05-16T03:17:14.971Z,24.51
2018-05-16T03:19:41.204Z,24.51
2018-05-16T03:22:07.604Z,24.52
2018-05-16T03:24:33.762Z,24.53
2018-05-16T03:26:59.907Z,24.54
2018-05-16T03:29:26.395Z,24.53
2018-05-16T03:31:52.930Z,24.52
2018-05-16T03:34:19.507Z,24.52
2018-05-16T03:36:45.992Z,24.52
2018-05-16T03:39:12.530Z,24.51
2018-05-16T03:41:39.063Z,24.51
2018-05-16T03:44:05.595Z,24.51
2018-05-16T03:46:32.020Z,24.52
2018-05-16T03:48:58.573Z,24.52
2018-05-16T03:51:25.078Z,24.51
2018-05-16T03:53:51.540Z,24.52
2018-05-16T03:56:17.807Z,24.51
2018-05-16T03:58:56.504Z,24.48
2018-05-16T04:01:34.798Z,24.50
2018-05-16T04:04:13.065Z,24.50
2018-05-16T04:06:39.239Z,24.49
2018-05-16T04:09:05.373Z,24.48
2018-05-16T04:11:31.506Z,24.47
2018-05-16T04:13:58.029Z,24.49
2018-05-16T04:16:24.156Z,24.48
2018-05-16T04:18:50.302Z,24.46
2018-05-16T04:21:16.465Z,24.49
2018-05-16T04:23:42.610Z,24.46
2018-05-16T04:26:08.777Z,24.41
2018-05-16T04:28:35.163Z,24.41
2018-05-16T04:31:01.625Z,24.41
2018-05-16T04:33:27.843Z,24.39
2018-05-16T04:35:54.072Z,24.41
2018-05-16T04:38:20.342Z,24.39
2018-05-16T04:40:46.670Z,24.42
2018-05-16T04:43:12.860Z,24.43
2018-05-16T04:45:39.017Z,24.44
2018-05-16T04:48:05.242Z,24.44
2018-05-16T04:50:31.545Z,24.46
2018-05-16T04:52:57.718Z,24.45
2018-05-16T04:55:23.834Z,24.42
2018-05-16T04:57:50.011Z,24.40
2018-05-16T05:00:16.137Z,24.40
2018-05-16T05:02:42.894Z,24.39
2018-05-16T05:05:09.032Z,24.37
2018-05-16T05:07:35.397Z,24.37
2018-05-16T05:10:01.924Z,24.35
2018-05-16T05:12:28.076Z,24.38
2018-05-16T05:14:54.209Z,24.43
2018-05-16T05:17:20.393Z,24.47
2018-05-16T05:19:46.629Z,24.50
2018-05-16T05:22:12.714Z,24.56
2018-05-16T05:24:38.879Z,24.55
2018-05-16T05:27:05.023Z,24.55
2018-05-16T05:29:31.199Z,24.59
2018-05-16T05:31:57.343Z,24.62
2018-05-16T05:34:23.897Z,24.64
2018-05-16T05:36:50.045Z,24.65
2018-05-16T05:39:16.201Z,24.68
2018-05-16T05:41:42.461Z,24.67
2018-05-16T05:44:08.655Z,24.65
2018-05-16T05:46:34.827Z,24.69
2018-05-16T05:49:01.002Z,24.68
2018-05-16T05:51:27.210Z,24.71
2018-05-16T05:53:53.361Z,24.74
2018-05-16T05:56:19.957Z,24.75
2018-05-16T05:58:46.196Z,24.76
2018-05-16T06:01:12.351Z,24.76
2018-05-16T06:03:38.519Z,24.80
2018-05-16T06:06:04.729Z,24.82
2018-05-16T06:08:31.076Z,24.87
2018-05-16T06:10:57.657Z,24.90
2018-05-16T06:13:23.862Z,24.89
2018-05-16T06:15:50.015Z,24.89
2018-05-16T06:18:16.308Z,24.86
2018-05-16T06:20:42.444Z,24.83
2018-05-16T06:23:08.594Z,24.83
2018-05-16T06:25:35.101Z,24.87
2018-05-16T06:28:01.254Z,24.91
2018-05-16T06:30:27.398Z,24.90
2018-05-16T06:32:53.679Z,24.93
2018-05-16T06:35:19.844Z,24.92
2018-05-16T06:37:46.218Z,24.93
2018-05-16T06:40:12.782Z,24.93
2018-05-16T06:42:38.948Z,24.95
2018-05-16T06:45:05.083Z,24.98
2018-05-16T06:47:31.524Z,25.00
2018-05-16T06:49:57.696Z,25.02
2018-05-16T06:52:23.849Z,25.06
2018-05-16T06:54:50.165Z,25.08
2018-05-16T06:57:16.351Z,25.12
2018-05-16T06:59:42.510Z,25.16
2018-05-16T07:02:08.723Z,25.20
2018-05-16T07:04:34.862Z,25.22
2018-05-16T07:07:01.025Z,25.23
2018-05-16T07:09:27.172Z,25.22
2018-05-16T07:11:53.702Z,25.21
2018-05-16T07:14:19.833Z,25.17
2018-05-16T07:16:45.982Z,25.13
2018-05-16T07:19:12.157Z,25.10
2018-05-16T07:21:38.527Z,25.08
2018-05-16T07:24:04.700Z,25.05
2018-05-16T07:26:30.871Z,25.04
2018-05-16T07:28:57.150Z,25.03
2018-05-16T07:31:23.534Z,25.07
2018-05-16T07:33:49.675Z,25.09
2018-05-16T07:36:15.846Z,25.09
2018-05-16T07:38:42.313Z,25.10
2018-05-16T07:41:08.785Z,25.12
2018-05-16T07:43:35.128Z,25.14
2018-05-16T07:46:01.277Z,25.14
2018-05-16T07:48:27.582Z,25.14
2018-05-16T07:50:53.971Z,25.13
2018-05-16T07:53:20.745Z,25.10
2018-05-16T07:55:46.986Z,25.08
2018-05-16T07:58:13.122Z,25.06
2018-05-16T08:00:39.597Z,25.04
2018-05-16T08:03:05.747Z,25.03
2018-05-16T08:05:31.909Z,25.03
2018-05-16T08:07:58.384Z,25.03
2018-05-16T08:10:24.617Z,25.04
2018-05-16T08:12:51.128Z,25.05
2018-05-16T08:15:17.332Z,25.07
2018-05-16T08:17:43.476Z,25.09
2018-05-16T08:20:09.857Z,25.08
2018-05-16T08:22:36.030Z,25.08
2018-05-16T08:25:02.181Z,25.10
2018-05-16T08:27:28.341Z,25.14
2018-05-16T08:29:54.468Z,25.19
2018-05-16T08:32:20.646Z,25.19
2018-05-16T08:34:46.771Z,25.18
2018-05-16T08:37:20.040Z,25.18
2018-05-16T08:39:46.170Z,25.17
2018-05-16T08:42:12.392Z,25.17
2018-05-16T08:44:38.567Z,25.16
2018-05-16T08:47:04.702Z,25.16
2018-05-16T08:49:30.905Z,25.16
2018-05-16T08:51:57.041Z,25.16
2018-05-16T08:54:23.199Z,25.17
2018-05-16T08:56:49.337Z,25.17
2018-05-16T08:59:15.486Z,25.22
2018-05-16T09:01:41.755Z,25.26
2018-05-16T09:04:07.898Z,25.28
2018-05-16T09:06:34.031Z,25.31
2018-05-16T09:09:00.336Z,25.33
2018-05-16T09:11:26.481Z,25.35
2018-05-16T09:13:52.888Z,25.37
2018-05-16T09:16:19.109Z,25.38
2018-05-16T09:18:45.258Z,25.38
2018-05-16T09:21:12.087Z,25.40
2018-05-16T09:23:38.226Z,25.43
2018-05-16T09:26:04.357Z,25.45
2018-05-16T09:28:30.579Z,25.46
2018-05-16T09:30:56.717Z,25.47
2018-05-16T09:33:22.862Z,25.49
2018-05-16T09:35:49.028Z,25.50
2018-05-16T09:38:15.175Z,25.52
2018-05-16T09:40:41.606Z,25.53
2018-05-16T09:43:07.849Z,25.54
2018-05-16T09:45:34.247Z,25.58
2018-05-16T09:48:00.396Z,25.58
2018-05-16T09:50:26.588Z,25.59
2018-05-16T09:52:52.769Z,25.60
2018-05-16T09:55:18.901Z,25.62
2018-05-16T09:57:45.067Z,25.63
2018-05-16T10:00:11.301Z,25.66
2018-05-16T10:02:37.516Z,25.66
2018-05-16T10:05:03.722Z,25.70
2018-05-16T10:07:29.871Z,25.73
2018-05-16T10:09:56.037Z,25.75
2018-05-16T10:12:22.230Z,25.77
2018-05-16T10:14:48.373Z,25.81
2018-05-16T10:17:14.517Z,25.82
2018-05-16T10:19:40.691Z,25.83
2018-05-16T10:22:06.847Z,25.86
2018-05-16T10:24:34.203Z,25.89
2018-05-16T10:27:00.610Z,25.94
2018-05-16T10:29:26.783Z,26.01
2018-05-16T10:31:53.005Z,26.05
2018-05-16T10:34:19.175Z,26.06
2018-05-16T10:36:45.330Z,26.10
2018-05-16T10:39:11.516Z,26.10
2018-05-16T10:41:38.225Z,26.12
2018-05-16T10:44:04.415Z,26.16
2018-05-16T10:46:30.605Z,26.22
2018-05-16T10:48:56.813Z,26.22
2018-05-16T10:51:22.991Z,26.24
2018-05-16T10:53:49.160Z,26.27
2018-05-16T10:56:15.327Z,26.33
2018-05-16T10:58:41.537Z,26.37
2018-05-16T11:01:07.951Z,26.40
2018-05-16T11:03:34.090Z,26.43
2018-05-16T11:06:00.267Z,26.46
2018-05-16T11:08:26.458Z,26.47
2018-05-16T11:10:52.787Z,26.49
2018-05-16T11:13:19.831Z,26.52
2018-05-16T11:15:46.140Z,26.56
2018-05-16T11:18:12.405Z,26.61
2018-05-16T11:20:38.798Z,26.67
2018-05-16T11:23:05.233Z,26.74
2018-05-16T11:25:31.398Z,26.81
2018-05-16T11:27:57.588Z,26.91
2018-05-16T11:30:23.748Z,27.01
2018-05-16T11:32:49.883Z,27.05
2018-05-16T11:35:16.053Z,27.06
2018-05-16T11:37:42.329Z,27.11
2018-05-16T11:40:08.593Z,27.16
2018-05-16T11:42:34.732Z,27.15
2018-05-16T11:45:00.880Z,27.13
2018-05-16T11:47:27.045Z,27.18
2018-05-16T11:49:53.213Z,27.21
2018-05-16T11:52:19.414Z,27.24
2018-05-16T11:54:45.550Z,27.29
2018-05-16T11:57:11.837Z,27.33
2018-05-16T11:59:38.110Z,27.30
2018-05-16T12:02:04.258Z,27.27
2018-05-16T12:04:30.392Z,27.30
2018-05-16T12:06:56.618Z,27.37
2018-05-16T12:09:22.762Z,27.42
2018-05-16T12:11:49.179Z,27.47
2018-05-16T12:14:15.363Z,27.49
2018-05-16T12:16:41.694Z,27.52
2018-05-16T12:19:07.860Z,27.52
2018-05-16T12:21:34.087Z,27.54
2018-05-16T12:24:00.294Z,27.56
2018-05-16T12:26:26.446Z,27.56
2018-05-16T12:28:52.981Z,27.51
2018-05-16T12:31:19.260Z,27.49
2018-05-16T12:33:45.397Z,27.49
2018-05-16T12:36:11.585Z,27.50
2018-05-16T12:38:37.976Z,27.49
2018-05-16T12:41:04.470Z,27.49
2018-05-16T12:43:31.033Z,27.51
2018-05-16T12:45:57.221Z,27.52
2018-05-16T12:48:23.422Z,27.53
2018-05-16T12:50:49.705Z,27.54
2018-05-16T12:53:15.890Z,27.58
2018-05-16T12:55:42.095Z,27.59
2018-05-16T12:58:08.387Z,27.61
2018-05-16T13:00:34.494Z,27.62
2018-05-16T13:03:00.594Z,27.63
2018-05-16T13:05:26.846Z,27.64
2018-05-16T13:07:52.959Z,27.68
2018-05-16T13:10:19.076Z,27.71
2018-05-16T13:12:45.221Z,27.73
2018-05-16T13:15:11.834Z,27.75
2018-05-16T13:17:37.969Z,27.77
2018-05-16T13:20:04.096Z,27.78
2018-05-16T13:22:30.252Z,27.80
2018-05-16T13:24:56.368Z,27.81
2018-05-16T13:27:22.759Z,27.81
2018-05-16T13:29:49.193Z,27.86
2018-05-16T13:32:15.316Z,27.88
2018-05-16T13:34:41.423Z,27.91
2018-05-16T13:37:07.882Z,27.94
2018-05-16T13:39:33.981Z,27.98
2018-05-16T13:42:00.074Z,28.00
2018-05-16T13:44:26.468Z,28.00
2018-05-16T13:46:52.590Z,28.02
2018-05-16T13:49:18.741Z,28.04
2018-05-16T13:51:44.884Z,28.06
2018-05-16T13:54:11.047Z,28.08
2018-05-16T13:56:37.149Z,28.10
2018-05-16T13:59:03.361Z,28.13
2018-05-16T14:01:29.875Z,28.14
2018-05-16T14:03:56.231Z,28.18
2018-05-16T14:06:22.402Z,28.24
2018-05-16T14:08:48.551Z,28.29
2018-05-16T14:11:14.737Z,28.38
2018-05-16T14:13:40.890Z,28.45
2018-05-16T14:16:07.083Z,28.53
2018-05-16T14:18:33.330Z,28.61
2018-05-16T14:20:59.442Z,28.68
2018-05-16T14:23:25.578Z,28.76
2018-05-16T14:25:51.718Z,28.83
2018-05-16T14:28:17.895Z,28.94
2018-05-16T14:30:44.277Z,28.97
2018-05-16T14:33:10.393Z,28.97
2018-05-16T14:35:36.986Z,28.78
2018-05-16T14:38:03.090Z,28.66
2018-05-16T14:40:29.203Z,28.59
2018-05-16T14:42:55.607Z,28.53
2018-05-16T14:45:21.664Z,28.49
2018-05-16T14:47:47.926Z,28.50
2018-05-16T14:50:14.221Z,29.20
2018-05-16T14:52:40.363Z,29.41
2018-05-16T14:55:06.522Z,29.18
2018-05-16T14:57:32.692Z,28.81
2018-05-16T14:59:58.800Z,28.61
2018-05-16T15:02:24.967Z,28.38
2018-05-16T15:04:51.083Z,28.24
2018-05-16T15:07:17.192Z,28.18
2018-05-16T15:09:43.367Z,28.14
2018-05-16T15:12:10.960Z,28.07
2018-05-16T15:14:37.128Z,27.99
2018-05-16T15:17:03.201Z,27.90
2018-05-16T15:19:29.470Z,27.80
2018-05-16T15:21:55.578Z,27.74
2018-05-16T15:24:21.699Z,27.67
2018-05-16T15:26:48.055Z,27.61
2018-05-16T15:29:14.218Z,27.54
2018-05-16T15:31:40.333Z,27.46
2018-05-16T15:34:06.566Z,27.40
2018-05-16T15:36:32.683Z,27.37
2018-05-16T15:38:59.127Z,27.15
2018-05-16T15:41:25.255Z,27.36
2018-05-16T15:43:51.364Z,27.41
2018-05-16T15:46:17.522Z,27.44
2018-05-16T15:48:43.625Z,27.42
2018-05-16T15:51:09.811Z,27.39
2018-05-16T15:53:36.092Z,27.39
2018-05-16T15:56:02.241Z,27.39
2018-05-16T15:58:28.370Z,27.35
2018-05-16T16:00:54.744Z,27.30
2018-05-16T16:03:20.885Z,27.25
2018-05-16T16:05:47.022Z,27.21
2018-05-16T16:08:13.257Z,27.17
2018-05-16T16:10:39.431Z,27.14
2018-05-16T16:13:05.965Z,27.12
2018-05-16T16:15:32.078Z,27.09
2018-05-16T16:17:58.231Z,27.07
2018-05-16T16:20:24.381Z,27.05
2018-05-16T16:22:51.404Z,27.04
2018-05-16T16:25:17.776Z,27.02
2018-05-16T16:27:44.042Z,27.00
2018-05-16T16:30:10.157Z,26.95
2018-05-16T16:32:36.266Z,26.91
2018-05-16T16:35:02.420Z,26.89
2018-05-16T16:37:28.539Z,26.90
2018-05-16T16:39:54.689Z,26.92
2018-05-16T16:42:21.073Z,26.98
2018-05-16T16:44:47.374Z,27.00
2018-05-16T16:47:13.430Z,27.01
2018-05-16T16:49:39.577Z,26.97
2018-05-16T16:52:05.732Z,26.90
2018-05-16T16:54:31.878Z,26.82
2018-05-16T16:56:58.017Z,26.76
2018-05-16T16:59:24.366Z,26.70
2018-05-16T17:01:50.506Z,26.65
2018-05-16T17:04:16.609Z,26.59
2018-05-16T17:06:42.760Z,26.54
2018-05-16T17:09:08.866Z,26.50
2018-05-16T17:11:35.014Z,26.46
2018-05-16T17:14:01.407Z,26.41
2018-05-16T17:16:27.685Z,26.37
2018-05-16T17:18:54.122Z,26.34
2018-05-16T17:21:20.910Z,26.31
2018-05-16T17:23:47.022Z,26.29
2018-05-16T17:26:13.148Z,26.29
2018-05-16T17:28:39.277Z,26.24
2018-05-16T17:31:05.394Z,26.22
2018-05-16T17:33:31.530Z,26.20
2018-05-16T17:35:57.666Z,26.16
2018-05-16T17:38:24.839Z,26.12
2018-05-16T17:40:50.965Z,26.09
2018-05-16T17:43:17.083Z,26.07
2018-05-16T17:45:43.218Z,26.07
2018-05-16T17:48:09.338Z,26.06
2018-05-16T17:50:35.484Z,26.04
2018-05-16T17:53:01.633Z,26.02
2018-05-16T17:55:27.741Z,26.00
2018-05-16T17:57:54.157Z,25.97
2018-05-16T18:00:20.291Z,25.95
2018-05-16T18:02:46.395Z,25.93
2018-05-16T18:05:12.549Z,25.91
2018-05-16T18:07:38.702Z,25.88
2018-05-16T18:10:05.261Z,25.87
2018-05-16T18:12:31.369Z,25.86
2018-05-16T18:15:20.941Z,25.84
2018-05-16T18:17:47.053Z,25.82
2018-05-16T18:20:13.293Z,25.80
2018-05-16T18:22:39.429Z,25.79
2018-05-16T18:25:05.570Z,25.60
2018-05-16T18:27:31.697Z,24.37
2018-05-16T18:29:57.903Z,23.56
2018-05-16T18:32:24.270Z,23.02
2018-05-16T18:34:50.374Z,22.52
2018-05-16T18:37:17.015Z,22.28
2018-05-16T18:39:43.246Z,22.00
2018-05-16T18:42:09.353Z,21.85
2018-05-16T18:44:35.656Z,22.14
2018-05-16T18:47:01.773Z,22.14
2018-05-16T18:49:28.140Z,22.05
2018-05-16T18:51:54.416Z,21.88
2018-05-16T18:54:20.579Z,21.74
2018-05-16T18:56:46.779Z,21.62
2018-05-16T18:59:13.107Z,21.56
2018-05-16T19:01:39.457Z,21.49
2018-05-16T19:04:06.291Z,21.40
2018-05-16T19:06:32.493Z,21.31
2018-05-16T19:08:58.674Z,21.22
2018-05-16T19:11:24.845Z,21.73
2018-05-16T19:13:51.016Z,22.19
2018-05-16T19:16:17.235Z,22.43
2018-05-16T19:18:43.354Z,22.58
2018-05-16T19:21:09.615Z,22.66
2018-05-16T19:23:35.973Z,22.73
2018-05-16T19:26:02.125Z,22.79
2018-05-16T19:28:28.270Z,22.84
2018-05-16T19:30:54.399Z,22.88
2018-05-16T19:33:20.644Z,22.88
2018-05-16T19:35:46.773Z,22.88
2018-05-16T19:38:12.906Z,22.92
2018-05-16T19:40:39.402Z,22.97
2018-05-16T19:43:05.494Z,23.00
2018-05-16T19:45:32.081Z,23.04
2018-05-16T19:47:58.190Z,23.07
2018-05-16T19:50:24.317Z,23.08
2018-05-16T19:52:50.833Z,23.10
2018-05-16T19:55:16.893Z,23.12
2018-05-16T19:57:43.018Z,23.13
2018-05-16T20:00:09.176Z,23.18
2018-05-16T20:02:35.517Z,23.23
2018-05-16T20:05:01.667Z,23.27
2018-05-16T20:07:27.891Z,23.29
2018-05-16T20:09:54.022Z,23.32
2018-05-16T20:12:20.157Z,23.34
2018-05-16T20:14:46.445Z,23.36
2018-05-16T20:17:12.578Z,23.38
2018-05-16T20:19:38.682Z,23.42
2018-05-16T20:22:04.815Z,23.42
2018-05-16T20:24:30.943Z,23.43
2018-05-16T20:26:57.132Z,23.45
2018-05-16T20:29:23.408Z,23.46
2018-05-16T20:31:49.496Z,23.46
2018-05-16T20:34:15.769Z,23.45
2018-05-16T20:36:42.029Z,23.45
2018-05-16T20:39:08.238Z,23.44
2018-05-16T20:41:34.348Z,23.45
2018-05-16T20:44:00.492Z,23.40
2018-05-16T20:46:26.598Z,23.36
2018-05-16T20:48:53.228Z,23.34
2018-05-16T20:51:19.312Z,23.32
2018-05-16T20:53:45.420Z,23.32
2018-05-16T20:56:11.541Z,23.29
2018-05-16T20:58:37.683Z,23.31
2018-05-16T21:01:03.801Z,23.30
2018-05-16T21:03:30.350Z,23.30
2018-05-16T21:05:56.786Z,23.26
2018-05-16T21:08:23.215Z,23.28
2018-05-16T21:10:49.308Z,23.27
2018-05-16T21:13:15.433Z,23.26
2018-05-16T21:15:41.550Z,23.24
2018-05-16T21:18:07.713Z,23.26
2018-05-16T21:20:33.845Z,23.26
2018-05-16T21:22:59.969Z,23.24
2018-05-16T21:25:26.076Z,23.21
2018-05-16T21:27:52.248Z,23.22
2018-05-16T21:30:18.386Z,23.22
2018-05-16T21:32:44.489Z,23.22
2018-05-16T21:35:10.723Z,23.22
2018-05-16T21:37:36.836Z,23.20
2018-05-16T21:40:02.943Z,23.20
2018-05-16T21:42:29.116Z,23.21
2018-05-16T21:44:55.229Z,23.21
2018-05-16T21:47:21.339Z,23.18
2018-05-16T21:49:47.589Z,23.18
2018-05-16T21:52:13.703Z,23.17
2018-05-16T21:54:39.818Z,23.14
2018-05-16T21:57:05.950Z,23.15
2018-05-16T21:59:32.370Z,23.17
2018-05-16T22:01:58.522Z,23.18
2018-05-16T22:04:24.625Z,23.16
2018-05-16T22:06:51.164Z,23.18
2018-05-16T22:09:17.273Z,23.23
2018-05-16T22:11:43.367Z,23.25
2018-05-16T22:14:09.497Z,23.24
2018-05-16T22:16:35.644Z,23.25
2018-05-16T22:19:01.846Z,23.23
2018-05-16T22:21:28.051Z,23.21
2018-05-16T22:23:54.446Z,23.17
2018-05-16T22:26:20.882Z,23.14
2018-05-16T22:28:46.997Z,23.16
2018-05-16T22:31:19.233Z,23.16
2018-05-16T22:33:51.449Z,23.15
2018-05-16T22:36:23.830Z,23.13
2018-05-16T22:38:55.970Z,23.10
2018-05-16T22:41:28.051Z,23.08
2018-05-16T22:44:00.178Z,23.07
2018-05-16T22:46:26.294Z,23.05
2018-05-16T22:48:52.449Z,23.04
2018-05-16T22:51:18.555Z,23.04
2018-05-16T22:53:44.673Z,23.02
2018-05-16T22:56:11.379Z,22.99
2018-05-16T22:58:37.481Z,22.96
2018-05-16T23:01:03.576Z,22.92
2018-05-16T23:03:30.129Z,22.96
2018-05-16T23:05:56.222Z,22.95
2018-05-16T23:08:22.325Z,22.91
2018-05-16T23:10:48.561Z,22.90
2018-05-16T23:13:14.653Z,22.88
2018-05-16T23:15:40.810Z,22.86
2018-05-16T23:18:07.460Z,22.83
2018-05-16T23:20:33.598Z,22.82
2018-05-16T23:22:59.706Z,22.83
2018-05-16T23:25:25.922Z,22.83
2018-05-16T23:27:52.012Z,22.82
2018-05-16T23:30:18.146Z,22.79
2018-05-16T23:32:44.252Z,22.77
2018-05-16T23:35:10.431Z,22.75
2018-05-16T23:37:36.528Z,22.73
2018-05-16T23:40:02.634Z,22.72
2018-05-16T23:42:29.117Z,22.71
2018-05-16T23:44:55.540Z,22.71
2018-05-16T23:47:21.667Z,22.69
2018-05-16T23:49:48.193Z,22.68
2018-05-16T23:52:14.302Z,22.67
2018-05-16T23:54:40.412Z,22.64
2018-05-16T23:57:06.547Z,22.62
2018-05-16T23:59:33.019Z,22.60
